Time;durP1;ratioP1;P1;durP2;ratioP2;P2;SDS_P1;SDS_P2;PMS_P1;PMS_P2;Temp;Humidity;BMP_temperature;BMP_pressure;BME280_temperature;BME280_humidity;BME280_pressure;Samples;Min_cycle;Max_cycle;Signal;HPM_P1;HPM_P2
2023/03/14 00:00:58;;;;;;;;;;;;;;;6.79;63.64;99623.88;5588376;31;34604;-63
2023/03/14 00:04:05;;;;;;;;;;;;;;;6.91;63.46;99622.59;5588347;31;34377;-63
2023/03/14 00:07:12;;;;;;;;;;;;;;;6.96;63.50;99617.66;5587697;31;34642;-63
2023/03/14 00:10:21;;;;;;;;;;;;;;;6.83;63.48;99606.72;5589636;31;34312;-64
2023/03/14 00:13:29;;;;;;;;;;;;;;;6.77;63.65;99606.56;5590806;31;34370;-64
2023/03/14 00:16:40;;;;;;;;;;;;;;;6.70;63.96;99606.38;5590319;31;34321;-63
2023/03/14 00:19:49;;;;;;;;;;;;;;;6.69;64.22;99598.63;5590267;31;34293;-63
2023/03/14 00:22:58;;;;;;;;;;;;;;;6.68;64.04;99597.00;5590975;31;34422;-63
2023/03/14 00:26:07;;;;;;;;;;;;;;;6.67;64.25;99590.91;5590816;31;34614;-64
2023/03/14 00:29:17;;;;;;;;;;;;;;;6.66;64.16;99583.16;5590032;31;34215;-63
2023/03/14 00:32:24;;;;;;;;;;;;;;;6.59;64.86;99580.34;5590759;31;34444;-63
2023/03/14 00:35:33;;;;;;;;;;;;;;;6.52;65.52;99574.91;5590086;31;34805;-63
2023/03/14 00:38:41;;;;;;;;;;;;;;;6.48;65.63;99567.47;5590733;31;34299;-63
2023/03/14 00:41:49;;;;;;;;;;;;;;;6.45;66.44;99557.25;5590845;31;33833;-63
2023/03/14 00:44:55;;;;;;;;;;;;;;;6.41;66.38;99548.84;5589887;31;34369;-63
2023/03/14 00:48:05;;;;;;;;;;;;;;;6.44;66.66;99560.88;5589953;31;34297;-63
2023/03/14 00:51:13;;;;;;;;;;;;;;;6.42;66.73;99560.22;5589818;31;34998;-63
2023/03/14 00:54:21;;;;;;;;;;;;;;;6.41;66.62;99558.56;5589773;31;34859;-63
2023/03/14 00:57:29;;;;;;;;;;;;;;;6.42;66.50;99544.41;5590554;31;34444;-63
2023/03/14 01:00:38;;;;;;;;;;;;;;;6.44;66.53;99540.62;5590370;31;34914;-63
2023/03/14 01:03:43;;;;;;;;;;;;;;;6.44;66.36;99542.41;5590301;31;35030;-63
2023/03/14 01:06:52;;;;;;;;;;;;;;;6.40;68.29;99538.47;5590476;31;34923;-62
2023/03/14 01:09:57;;;;;;;;;;;;;;;6.34;67.46;99534.66;5589866;31;34358;-63
2023/03/14 01:13:07;;;;;;;;;;;;;;;6.25;68.05;99533.00;5590331;31;34303;-63
2023/03/14 01:16:17;;;;;;;;;;;;;;;6.17;68.77;99525.09;5590387;31;34236;-63
2023/03/14 01:19:25;;;;;;;;;;;;;;;6.08;69.42;99532.16;5590087;31;34216;-62
2023/03/14 01:22:34;;;;;;;;;;;;;;;5.99;70.61;99521.75;5589064;31;33775;-63
2023/03/14 01:25:45;;;;;;;;;;;;;;;5.95;70.72;99509.88;5590271;31;34882;-63
2023/03/14 01:28:57;;;;;;;;;;;;;;;5.92;71.25;99495.22;5590240;31;34375;-63
2023/03/14 01:32:07;;;;;;;;;;;;;;;5.85;71.57;99504.72;5590126;31;34422;-63
2023/03/14 01:35:15;;;;;;;;;;;;;;;5.80;72.42;99487.75;5590136;31;34418;-63
2023/03/14 01:38:23;;;;;;;;;;;;;;;5.85;72.34;99474.94;5589276;31;34872;-63
2023/03/14 01:41:30;;;;;;;;;;;;;;;5.80;72.76;99470.16;5590272;31;34360;-63
2023/03/14 01:44:48;;;;;;;;;;;;;;;5.94;74.32;99474.84;5590084;31;34871;-63
2023/03/14 01:47:56;;;;;;;;;;;;;;;5.80;74.28;99470.16;5590190;31;34297;-63
2023/03/14 01:51:08;;;;;;;;;;;;;;;5.84;75.39;99465.38;5590238;31;34286;-63
2023/03/14 01:54:14;;;;;;;;;;;;;;;5.99;73.99;99453.28;5589290;31;34263;-63
2023/03/14 01:57:28;;;;;;;;;;;;;;;5.93;73.57;99448.66;5589918;31;34252;-63
2023/03/14 02:00:35;;;;;;;;;;;;;;;5.88;73.50;99451.78;5588886;31;33605;-63
2023/03/14 02:03:52;;;;;;;;;;;;;;;5.90;73.51;99446.38;5589221;31;34320;-63
2023/03/14 02:07:04;;;;;;;;;;;;;;;5.87;74.35;99450.13;5589903;31;35118;-63
2023/03/14 02:10:20;;;;;;;;;;;;;;;6.00;74.07;99436.53;5589895;31;34465;-63
2023/03/14 02:13:27;;;;;;;;;;;;;;;6.09;73.79;99420.56;5589879;31;34309;-63
2023/03/14 02:16:35;;;;;;;;;;;;;;;6.57;70.24;99410.22;5589098;31;34918;-63
2023/03/14 02:19:50;;;;;;;;;;;;;;;6.79;68.93;99412.16;5589742;31;35047;-62
2023/03/14 02:23:00;;;;;;;;;;;;;;;6.78;68.84;99407.88;5589063;31;34192;-63
2023/03/14 02:26:16;;;;;;;;;;;;;;;6.81;69.10;99405.75;5589911;31;34184;-63
2023/03/14 02:29:24;;;;;;;;;;;;;;;6.88;68.46;99390.06;5589048;31;34655;-64
2023/03/14 02:32:33;;;;;;;;;;;;;;;6.82;69.23;99388.94;5589402;31;34171;-64
2023/03/14 02:35:44;;;;;;;;;;;;;;;6.79;68.93;99383.97;5589763;31;34539;-63
2023/03/14 02:39:23;;;;;;;;;;;;;;;6.89;68.69;99379.34;5588827;31;34604;-64
2023/03/14 02:42:34;;;;;;;;;;;;;;;6.82;69.38;99367.03;5589872;31;34602;-64
2023/03/14 02:45:45;;;;;;;;;;;;;;;6.83;69.38;99377.38;5589931;31;34356;-63
2023/03/14 02:49:02;;;;;;;;;;;;;;;6.63;71.36;99370.84;5589496;31;34357;-64
2023/03/14 02:52:11;;;;;;;;;;;;;;;6.43;73.25;99380.09;5588917;31;34354;-64
2023/03/14 02:55:24;;;;;;;;;;;;;;;6.25;74.75;99363.63;5589487;31;34261;-64
2023/03/14 02:58:31;;;;;;;;;;;;;;;6.33;74.83;99363.63;5589526;31;34250;-63
2023/03/14 03:01:41;;;;;;;;;;;;;;;6.43;74.60;99357.22;5588852;31;34262;-64
2023/03/14 03:04:50;;;;;;;;;;;;;;;6.84;71.96;99342.12;5589458;31;32634;-63
2023/03/14 03:07:57;;;;;;;;;;;;;;;7.03;70.64;99335.63;5589419;31;34878;-63
2023/03/14 03:11:05;;;;;;;;;;;;;;;7.02;71.60;99330.56;5589037;31;34579;-64
2023/03/14 03:14:13;;;;;;;;;;;;;;;6.83;73.38;99340.47;5589331;31;34386;-64
2023/03/14 03:17:21;;;;;;;;;;;;;;;6.87;72.58;99338.34;5589232;31;34284;-64
2023/03/14 03:20:30;;;;;;;;;;;;;;;6.80;74.43;99345.28;5589155;31;34142;-64
2023/03/14 03:23:39;;;;;;;;;;;;;;;6.56;75.53;99351.41;5588446;31;34813;-64
2023/03/14 03:26:45;;;;;;;;;;;;;;;6.53;75.49;99335.94;5589253;31;34166;-64
2023/03/14 03:29:52;;;;;;;;;;;;;;;6.41;76.13;99338.09;5588909;31;34338;-64
2023/03/14 03:33:01;;;;;;;;;;;;;;;6.31;77.48;99326.91;5589105;31;34331;-64
2023/03/14 03:36:07;;;;;;;;;;;;;;;6.18;78.26;99331.88;5588986;31;34983;-64
2023/03/14 03:39:17;;;;;;;;;;;;;;;6.07;78.87;99326.91;5588819;31;34283;-64
2023/03/14 03:42:26;;;;;;;;;;;;;;;6.03;80.78;99328.25;5588830;31;34521;-64
2023/03/14 03:45:34;;;;;;;;;;;;;;;5.95;81.80;99325.63;5586892;31;33562;-64
2023/03/14 03:48:41;;;;;;;;;;;;;;;5.82;82.95;99314.69;5588083;31;34204;-64
2023/03/14 03:51:47;;;;;;;;;;;;;;;5.68;84.16;99314.37;5588051;31;33761;-64
2023/03/14 03:54:55;;;;;;;;;;;;;;;5.57;84.18;99312.03;5588627;31;34317;-64
2023/03/14 03:58:05;;;;;;;;;;;;;;;5.53;84.70;99312.53;5587980;31;34870;-63
2023/03/14 04:01:11;;;;;;;;;;;;;;;5.43;85.16;99307.41;5588594;31;34604;-64
2023/03/14 04:04:24;;;;;;;;;;;;;;;5.33;86.20;99311.97;5587846;31;33777;-64
2023/03/14 04:07:33;;;;;;;;;;;;;;;5.23;87.44;99312.12;5588324;31;34033;-64
2023/03/14 04:10:44;;;;;;;;;;;;;;;5.16;88.23;99310.28;5587719;31;35024;-64
2023/03/14 04:13:52;;;;;;;;;;;;;;;5.13;89.80;99294.84;5587954;31;35077;-64
2023/03/14 04:16:59;;;;;;;;;;;;;;;5.13;90.69;99284.34;5587611;31;34201;-64
2023/03/14 04:20:12;;;;;;;;;;;;;;;5.40;91.90;99286.69;5588233;31;34281;-64
2023/03/14 04:23:21;;;;;;;;;;;;;;;5.32;92.12;99291.94;5587486;31;34183;-63
2023/03/14 04:26:27;;;;;;;;;;;;;;;5.32;92.24;99310.34;5587747;31;34148;-64
2023/03/14 04:29:38;;;;;;;;;;;;;;;5.36;91.95;99306.41;5587895;31;34280;-64
2023/03/14 04:32:44;;;;;;;;;;;;;;;5.40;91.49;99302.47;5587257;31;34602;-64
2023/03/14 04:35:53;;;;;;;;;;;;;;;5.35;92.07;99285.53;5587263;31;33842;-64
2023/03/14 04:39:01;;;;;;;;;;;;;;;5.91;88.63;99277.72;5587805;31;34412;-64
2023/03/14 04:42:11;;;;;;;;;;;;;;;6.06;87.16;99283.97;5587745;31;34911;-64
2023/03/14 04:45:17;;;;;;;;;;;;;;;5.86;87.91;99289.69;5587590;31;34521;-64
2023/03/14 04:48:25;;;;;;;;;;;;;;;5.78;88.17;99301.06;5586915;31;34838;-65
2023/03/14 04:51:34;;;;;;;;;;;;;;;5.73;88.80;99305.97;5587539;31;35011;-64
2023/03/14 04:54:42;;;;;;;;;;;;;;;5.67;89.25;99304.00;5587346;31;34894;-64
2023/03/14 04:57:49;;;;;;;;;;;;;;;5.61;89.51;99307.28;5589836;31;34439;-64
2023/03/14 05:01:01;;;;;;;;;;;;;;;5.58;89.95;99307.59;5590372;31;34104;-63
2023/03/14 05:04:09;;;;;;;;;;;;;;;5.60;90.66;99306.47;5590574;31;34309;-63
2023/03/14 05:07:18;;;;;;;;;;;;;;;5.60;91.33;99301.22;5589799;31;34865;-64
2023/03/14 05:10:27;;;;;;;;;;;;;;;5.56;91.49;99297.25;5589863;31;34300;-65
2023/03/14 05:13:38;;;;;;;;;;;;;;;5.55;93.66;99292.97;5589549;31;34333;-64
2023/03/14 05:16:46;;;;;;;;;;;;;;;5.53;93.47;99281.78;5589521;31;34542;-64
2023/03/14 05:19:54;;;;;;;;;;;;;;;5.77;93.17;99277.53;5590259;31;34386;-64
2023/03/14 05:23:05;;;;;;;;;;;;;;;5.74;93.29;99276.06;5590349;31;34886;-63
2023/03/14 05:26:16;;;;;;;;;;;;;;;5.95;92.44;99275.59;5589409;31;35392;-64
2023/03/14 05:29:25;;;;;;;;;;;;;;;5.95;92.95;99271.16;5590089;31;34979;-64
2023/03/14 05:32:34;;;;;;;;;;;;;;;6.02;92.16;99271.31;5589402;31;34927;-64
2023/03/14 05:35:43;;;;;;;;;;;;;;;6.10;91.83;99277.37;5590077;31;34965;-64
2023/03/14 05:38:54;;;;;;;;;;;;;;;6.26;91.12;99283.63;5589450;31;34843;-65
2023/03/14 05:42:04;;;;;;;;;;;;;;;6.38;91.11;99285.75;5589421;31;34167;-65
2023/03/14 05:45:11;;;;;;;;;;;;;;;6.60;89.87;99267.56;5590055;31;34213;-65
2023/03/14 05:48:18;;;;;;;;;;;;;;;6.79;87.61;99267.19;5589433;31;34832;-65
2023/03/14 05:51:25;;;;;;;;;;;;;;;6.98;87.43;99277.31;5589912;31;34059;-65
2023/03/14 05:54:33;;;;;;;;;;;;;;;7.22;85.27;99271.09;5590003;31;34799;-65
2023/03/14 05:57:39;;;;;;;;;;;;;;;7.42;84.55;99257.28;5589906;31;34934;-65
2023/03/14 06:00:47;;;;;;;;;;;;;;;7.72;80.42;99266.16;5589655;31;34283;-66
2023/03/14 06:03:54;;;;;;;;;;;;;;;8.10;75.87;99251.16;5590208;31;34262;-64
2023/03/14 06:06:59;;;;;;;;;;;;;;;8.38;73.11;99269.87;5589416;31;34914;-64
2023/03/14 06:10:07;;;;;;;;;;;;;;;8.72;71.67;99272.81;5589844;31;34837;-65
2023/03/14 06:13:15;;;;;;;;;;;;;;;9.12;66.81;99273.34;5589639;31;34369;-65
2023/03/14 06:16:23;;;;;;;;;;;;;;;9.28;65.74;99283.72;5589694;31;34250;-65
2023/03/14 06:19:29;;;;;;;;;;;;;;;9.64;63.67;99275.75;5588853;31;34990;-65
2023/03/14 06:22:35;;;;;;;;;;;;;;;9.96;60.67;99269.97;5588838;31;34228;-65
2023/03/14 06:25:42;;;;;;;;;;;;;;;9.98;59.40;99272.38;5576209;31;34221;-66
2023/03/14 06:28:49;;;;;;;;;;;;;;;10.03;58.62;99265.50;5588703;31;34266;-64
2023/03/14 06:31:55;;;;;;;;;;;;;;;9.87;59.04;99272.94;5589259;31;34313;-65
2023/03/14 06:35:04;;;;;;;;;;;;;;;9.87;58.66;99271.09;5589340;31;34345;-65
2023/03/14 06:38:11;;;;;;;;;;;;;;;9.88;58.87;99277.19;5589251;31;34105;-65
2023/03/14 06:41:19;;;;;;;;;;;;;;;9.78;60.00;99269.56;5588573;31;34651;-65
2023/03/14 06:44:24;;;;;;;;;;;;;;;9.99;58.44;99274.03;5588769;31;34521;-66
2023/03/14 06:47:27;;;;;;;;;;;;;;;10.06;58.07;99269.63;5589227;31;34822;-65
2023/03/14 06:50:32;;;;;;;;;;;;;;;10.21;57.99;99270.41;5588252;31;34379;-65
2023/03/14 06:53:38;;;;;;;;;;;;;;;10.27;58.54;99274.09;5588146;31;34769;-65
2023/03/14 06:56:42;;;;;;;;;;;;;;;10.39;57.06;99281.34;5587843;31;34380;-65
2023/03/14 06:59:48;;;;;;;;;;;;;;;10.45;57.13;99269.97;5587901;31;34447;-66
2023/03/14 07:02:53;;;;;;;;;;;;;;;10.27;57.71;99263.47;5587504;31;34129;-65
2023/03/14 07:05:57;;;;;;;;;;;;;;;10.11;58.57;99269.06;5588164;31;34288;-66
2023/03/14 07:09:05;;;;;;;;;;;;;;;10.35;58.16;99266.81;5587466;31;33352;-65
2023/03/14 07:12:11;;;;;;;;;;;;;;;10.29;58.05;99264.13;5578897;31;34283;-64
2023/03/14 07:15:16;;;;;;;;;;;;;;;10.36;57.72;99263.13;5555232;32;34960;-65
2023/03/14 07:18:24;;;;;;;;;;;;;;;10.26;58.22;99264.50;5566938;32;34296;-64
2023/03/14 07:21:28;;;;;;;;;;;;;;;10.62;57.30;99264.34;5554647;32;34370;-64
2023/03/14 07:24:33;;;;;;;;;;;;;;;10.68;57.30;99266.22;5554748;32;33715;-64
2023/03/14 07:27:38;;;;;;;;;;;;;;;10.26;58.75;99264.50;5554739;32;35210;-65
2023/03/14 07:30:45;;;;;;;;;;;;;;;10.55;58.12;99256.34;5555704;32;34263;-65
2023/03/14 07:33:52;;;;;;;;;;;;;;;10.61;57.89;99252.91;5555449;32;34459;-65
2023/03/14 07:36:58;;;;;;;;;;;;;;;10.93;57.38;99247.97;5568845;32;34187;-65
2023/03/14 07:40:05;;;;;;;;;;;;;;;11.03;56.82;99243.12;5568984;32;34871;-66
2023/03/14 07:43:12;;;;;;;;;;;;;;;11.32;56.21;99245.47;5555834;32;34893;-66
2023/03/14 07:46:17;;;;;;;;;;;;;;;11.91;54.14;99240.25;5555357;32;34876;-65
2023/03/14 07:49:21;;;;;;;;;;;;;;;12.33;53.51;99233.72;5568585;32;34882;-65
2023/03/14 07:52:29;;;;;;;;;;;;;;;13.01;51.75;99236.81;5568559;32;34822;-65
2023/03/14 07:55:33;;;;;;;;;;;;;;;12.91;51.70;99231.09;5568511;32;34613;-66
2023/03/14 07:58:38;;;;;;;;;;;;;;;12.57;52.85;99233.06;5554669;32;33470;-66
2023/03/14 08:01:42;;;;;;;;;;;;;;;12.90;51.81;99222.31;5568670;32;32721;-65
2023/03/14 08:04:49;;;;;;;;;;;;;;;12.87;52.74;99222.72;5555837;32;34866;-65
2023/03/14 08:07:56;;;;;;;;;;;;;;;13.47;50.51;99223.28;5555112;32;34117;-65
2023/03/14 08:11:03;;;;;;;;;;;;;;;14.02;49.76;99215.50;5555072;31;34675;-66
2023/03/14 08:14:08;;;;;;;;;;;;;;;14.46;48.10;99218.00;5574557;31;34907;-66
2023/03/14 08:17:14;;;;;;;;;;;;;;;14.05;49.15;99207.06;5574798;31;34804;-66
2023/03/14 08:20:20;;;;;;;;;;;;;;;14.01;49.18;99201.34;5588240;31;34426;-66
2023/03/14 08:23:24;;;;;;;;;;;;;;;13.54;50.73;99191.25;5573588;31;33937;-65
2023/03/14 08:26:28;;;;;;;;;;;;;;;13.84;50.04;99187.75;5574407;31;34892;-65
2023/03/14 08:29:32;;;;;;;;;;;;;;;14.79;48.33;99191.75;5588010;31;34861;-66
2023/03/14 08:32:38;;;;;;;;;;;;;;;15.18;47.15;99203.78;5577284;31;34784;-65
2023/03/14 08:35:43;;;;;;;;;;;;;;;15.28;46.53;99191.72;5576993;31;34340;-65
2023/03/14 08:38:47;;;;;;;;;;;;;;;15.77;45.35;99187.94;5576494;31;33569;-66
2023/03/14 08:41:51;;;;;;;;;;;;;;;15.57;46.53;99181.06;5590637;31;34928;-66
2023/03/14 08:44:54;;;;;;;;;;;;;;;16.87;43.07;99181.62;5576660;31;34242;-66
2023/03/14 08:47:59;;;;;;;;;;;;;;;18.51;41.55;99178.75;5563666;31;32516;-66
2023/03/14 08:51:04;;;;;;;;;;;;;;;18.79;39.42;99181.31;5590523;31;33930;-66
2023/03/14 08:54:11;;;;;;;;;;;;;;;17.78;40.88;99163.72;5576140;31;33086;-67
2023/03/14 08:57:19;;;;;;;;;;;;;;;19.17;38.27;99158.09;5590446;31;34270;-66
2023/03/14 09:00:25;;;;;;;;;;;;;;;17.35;41.53;99146.34;5576666;31;34261;-65
2023/03/14 09:03:30;;;;;;;;;;;;;;;16.63;42.71;99153.28;5563668;31;33253;-70
2023/03/14 09:06:36;;;;;;;;;;;;;;;16.11;43.91;99152.38;5577167;31;34353;-70
2023/03/14 09:09:40;;;;;;;;;;;;;;;15.76;45.37;99135.50;5576816;31;34889;-70
2023/03/14 09:12:44;;;;;;;;;;;;;;;15.57;45.15;99143.62;5589822;31;34730;-70
2023/03/14 09:15:53;;;;;;;;;;;;;;;15.67;45.83;99129.69;5590443;31;34137;-69
2023/03/14 09:19:00;;;;;;;;;;;;;;;15.64;46.05;99132.81;5590270;31;35020;-70
2023/03/14 09:22:05;;;;;;;;;;;;;;;15.25;45.80;99142.22;5551070;31;34209;-71
2023/03/14 09:25:11;;;;;;;;;;;;;;;15.35;45.69;99130.97;5576668;31;34529;-71
2023/03/14 09:28:18;;;;;;;;;;;;;;;15.29;46.14;99134.59;5576383;31;34645;-70
2023/03/14 09:31:27;;;;;;;;;;;;;;;15.05;46.36;99115.81;5563499;31;33926;-73
2023/03/14 09:34:32;;;;;;;;;;;;;;;15.23;46.55;99106.91;5576404;31;35033;-69
2023/03/14 09:37:39;;;;;;;;;;;;;;;15.47;45.85;99105.09;5576654;31;33770;-71
2023/03/14 09:40:50;;;;;;;;;;;;;;;15.44;46.16;99097.56;5562471;31;32805;-73
2023/03/14 09:44:02;;;;;;;;;;;;;;;15.74;45.76;99098.28;5590028;31;34222;-72
2023/03/14 09:47:11;;;;;;;;;;;;;;;15.94;45.52;99098.75;5590025;31;34581;-70
2023/03/14 09:50:17;;;;;;;;;;;;;;;16.25;44.48;99099.44;5589759;31;34306;-69
2023/03/14 09:53:27;;;;;;;;;;;;;;;16.36;44.36;99082.56;5576118;31;34628;-69
2023/03/14 09:56:33;;;;;;;;;;;;;;;16.30;44.31;99078.13;5589706;31;34464;-67
2023/03/14 09:59:38;;;;;;;;;;;;;;;16.41;44.47;99058.56;5576230;31;34925;-66
2023/03/14 10:02:48;;;;;;;;;;;;;;;16.74;44.38;99063.25;5575669;31;33248;-67
2023/03/14 10:05:53;;;;;;;;;;;;;;;17.10;43.76;99057.47;5589727;31;34905;-67
2023/03/14 10:08:57;;;;;;;;;;;;;;;17.23;43.54;99038.38;5589907;31;34932;-67
2023/03/14 10:12:01;;;;;;;;;;;;;;;17.27;43.06;99026.13;5575738;31;34837;-67
2023/03/14 10:15:14;;;;;;;;;;;;;;;17.51;43.18;99024.09;5575862;31;35445;-68
2023/03/14 10:18:20;;;;;;;;;;;;;;;17.12;43.67;99023.19;5576325;31;34342;-67
2023/03/14 10:21:24;;;;;;;;;;;;;;;17.51;43.48;99013.38;5575909;31;34097;-67
2023/03/14 10:24:29;;;;;;;;;;;;;;;17.58;42.88;99000.56;5562680;31;34324;-68
2023/03/14 10:27:33;;;;;;;;;;;;;;;17.64;43.05;98996.94;5575831;31;34445;-66
2023/03/14 10:30:43;;;;;;;;;;;;;;;18.23;41.70;98979.19;5575448;31;34706;-68
2023/03/14 10:34:00;;;;;;;;;;;;;;;18.65;42.05;98990.13;5575957;31;34304;-68
2023/03/14 10:37:16;;;;;;;;;;;;;;;19.11;40.18;98985.19;5589484;31;34146;-68
2023/03/14 10:40:49;;;;;;;;;;;;;;;19.66;38.25;98971.31;5576221;31;34281;-68
2023/03/14 10:43:57;;;;;;;;;;;;;;;19.91;37.23;98984.91;5576029;31;33783;-68
2023/03/14 10:47:03;;;;;;;;;;;;;;;19.51;37.83;98974.72;5589484;31;34160;-68
2023/03/14 10:50:26;;;;;;;;;;;;;;;19.65;38.06;98971.59;5576151;31;34526;-70
2023/03/14 10:53:54;;;;;;;;;;;;;;;19.98;37.38;98960.44;5575714;31;34799;-69
2023/03/14 10:57:00;;;;;;;;;;;;;;;20.01;36.60;98964.47;5567338;31;34065;-68
2023/03/14 11:00:08;;;;;;;;;;;;;;;20.10;36.76;98954.81;5575597;31;35083;-67
2023/03/14 11:03:15;;;;;;;;;;;;;;;19.81;37.17;98955.25;5569782;31;34323;-68
2023/03/14 11:06:29;;;;;;;;;;;;;;;20.18;36.25;98946.25;5574300;31;33451;-68
2023/03/14 11:09:46;;;;;;;;;;;;;;;20.23;36.48;98941.69;5589257;31;34814;-66
2023/03/14 11:12:55;;;;;;;;;;;;;;;20.99;34.87;98941.00;5573318;31;34942;-68
2023/03/14 11:16:12;;;;;;;;;;;;;;;21.12;34.65;98927.75;5588862;31;34955;-68
2023/03/14 11:19:27;;;;;;;;;;;;;;;21.42;33.64;98915.34;5589005;31;34172;-67
2023/03/14 11:22:37;;;;;;;;;;;;;;;21.99;32.98;98925.69;5575313;31;34919;-70
2023/03/14 11:25:49;;;;;;;;;;;;;;;23.43;31.67;98911.66;5575174;31;34835;-70
2023/03/14 11:28:57;;;;;;;;;;;;;;;24.97;29.21;98906.34;5588544;31;34865;-70
2023/03/14 11:32:09;;;;;;;;;;;;;;;25.23;28.61;98895.00;5574459;31;34309;-69
2023/03/14 11:35:14;;;;;;;;;;;;;;;25.73;27.76;98888.63;5587532;31;34238;-68
2023/03/14 11:38:25;;;;;;;;;;;;;;;25.35;28.19;98885.28;5588466;31;34748;-69
2023/03/14 11:41:32;;;;;;;;;;;;;;;25.97;27.58;98877.53;5587792;31;34925;-69
2023/03/14 11:44:40;;;;;;;;;;;;;;;24.71;28.63;98869.03;5588320;31;34429;-66
2023/03/14 11:47:51;;;;;;;;;;;;;;;24.15;29.59;98862.56;5587208;31;35130;-67
2023/03/14 11:50:57;;;;;;;;;;;;;;;23.54;30.30;98853.59;5588211;31;34958;-68
2023/03/14 11:54:00;;;;;;;;;;;;;;;24.71;28.78;98844.63;5587577;31;35359;-68
2023/03/14 11:57:10;;;;;;;;;;;;;;;25.75;27.35;98848.41;5587281;31;32761;-68
2023/03/14 12:00:18;;;;;;;;;;;;;;;26.15;26.87;98848.59;5574809;31;34310;-68
2023/03/14 12:03:36;;;;;;;;;;;;;;;23.83;29.22;98841.59;5587043;31;34406;-68
2023/03/14 12:06:50;;;;;;;;;;;;;;;21.56;32.38;98857.00;5589260;31;35268;-67
2023/03/14 12:09:55;;;;;;;;;;;;;;;21.56;32.67;98819.22;5589918;31;34770;-68
2023/03/14 12:12:58;;;;;;;;;;;;;;;21.49;32.83;98851.94;5590450;31;34359;-67
2023/03/14 12:16:18;;;;;;;;;;;;;;;22.54;31.49;98828.06;5589681;31;34821;-67
2023/03/14 12:19:22;;;;;;;;;;;;;;;22.63;31.06;98828.25;5589805;31;34718;-67
2023/03/14 12:22:28;;;;;;;;;;;;;;;22.34;31.45;98822.03;5590704;31;34699;-69
2023/03/14 12:25:33;;;;;;;;;;;;;;;21.41;32.08;98819.28;5590521;31;34763;-68
2023/03/14 12:28:37;;;;;;;;;;;;;;;20.70;33.11;98808.66;5576986;31;34692;-69
2023/03/14 12:31:42;;;;;;;;;;;;;;;20.30;33.84;98817.53;5589973;31;34368;-67
2023/03/14 12:34:46;;;;;;;;;;;;;;;20.22;34.13;98797.34;5589185;31;33105;-68
2023/03/14 12:37:54;;;;;;;;;;;;;;;20.20;34.29;98798.69;5576770;31;35479;-70
2023/03/14 12:41:19;;;;;;;;;;;;;;;20.13;34.81;98796.25;5589325;31;34934;-69
2023/03/14 12:44:29;;;;;;;;;;;;;;;20.78;34.25;98775.75;5589448;31;34209;-69
2023/03/14 12:47:37;;;;;;;;;;;;;;;22.02;32.50;98788.22;5589648;31;32774;-69
2023/03/14 12:50:45;;;;;;;;;;;;;;;21.71;33.04;98778.66;5589639;31;34331;-71
2023/03/14 12:53:51;;;;;;;;;;;;;;;20.37;34.72;98775.84;5577056;31;33571;-70
2023/03/14 12:56:55;;;;;;;;;;;;;;;19.98;35.46;98760.44;5589967;31;34392;-70
2023/03/14 13:00:00;;;;;;;;;;;;;;;19.59;35.91;98768.19;5589973;31;34170;-69
2023/03/14 13:03:24;;;;;;;;;;;;;;;19.41;36.80;98769.44;5589961;31;34302;-68
2023/03/14 13:06:48;;;;;;;;;;;;;;;19.37;36.85;98763.75;5590050;31;33897;-69
2023/03/14 13:09:53;;;;;;;;;;;;;;;19.04;39.23;98762.28;5589976;31;34436;-71
2023/03/14 13:13:02;;;;;;;;;;;;;;;18.53;39.71;98761.22;5588933;31;34268;-67
2023/03/14 13:16:05;;;;;;;;;;;;;;;18.60;38.85;98744.84;5576139;31;33571;-69
2023/03/14 13:19:15;;;;;;;;;;;;;;;18.64;38.79;98744.06;5575996;31;32888;-69
2023/03/14 13:22:25;;;;;;;;;;;;;;;18.69;38.28;98750.56;5589148;31;35089;-69
2023/03/14 13:25:32;;;;;;;;;;;;;;;18.85;38.27;98760.31;5590106;31;34378;-69
2023/03/14 13:28:37;;;;;;;;;;;;;;;18.71;37.94;98759.16;5575683;31;33753;-68
2023/03/14 13:31:45;;;;;;;;;;;;;;;18.61;38.23;98768.78;5589202;31;34672;-69
2023/03/14 13:34:49;;;;;;;;;;;;;;;18.52;38.43;98778.34;5588553;31;33277;-69
2023/03/14 13:37:56;;;;;;;;;;;;;;;18.47;38.52;98778.31;5588716;31;33982;-70
2023/03/14 13:41:14;;;;;;;;;;;;;;;18.32;40.34;98778.19;5588769;31;34400;-69
2023/03/14 13:44:24;;;;;;;;;;;;;;;17.50;42.39;98791.06;5588828;31;35104;-69
2023/03/14 13:47:32;;;;;;;;;;;;;;;17.15;43.50;98780.72;5576146;31;35172;-68
2023/03/14 13:50:37;;;;;;;;;;;;;;;17.42;42.33;98783.47;5589400;31;35038;-70
2023/03/14 13:53:44;;;;;;;;;;;;;;;17.71;41.59;98785.72;5588310;31;34366;-67
2023/03/14 13:56:59;;;;;;;;;;;;;;;17.95;40.69;98785.41;5589086;31;34277;-68
2023/03/14 14:00:08;;;;;;;;;;;;;;;18.10;40.41;98775.63;5575415;31;34268;-69
2023/03/14 14:03:15;;;;;;;;;;;;;;;18.18;40.04;98785.06;5589217;31;34836;-68
2023/03/14 14:06:23;;;;;;;;;;;;;;;18.27;39.99;98782.72;5589486;31;34947;-67
2023/03/14 14:09:35;;;;;;;;;;;;;;;18.32;39.88;98788.13;5589449;31;34505;-68
2023/03/14 14:12:52;;;;;;;;;;;;;;;18.52;39.45;98781.03;5588620;31;34174;-68
2023/03/14 14:15:59;;;;;;;;;;;;;;;18.62;39.08;98780.31;5588527;31;33745;-69
2023/03/14 14:19:05;;;;;;;;;;;;;;;18.77;39.08;98780.44;5588735;31;34879;-68
2023/03/14 14:22:12;;;;;;;;;;;;;;;18.83;38.37;98759.78;5588574;31;34316;-69
2023/03/14 14:25:17;;;;;;;;;;;;;;;18.82;38.73;98766.22;5588709;31;34162;-67
2023/03/14 14:28:30;;;;;;;;;;;;;;;18.75;38.44;98760.25;5588104;31;34320;-69
2023/03/14 14:31:36;;;;;;;;;;;;;;;18.82;37.99;98764.34;5575784;31;33145;-69
2023/03/14 14:34:49;;;;;;;;;;;;;;;18.68;38.38;98760.50;5589323;31;34523;-69
2023/03/14 14:37:53;;;;;;;;;;;;;;;18.80;38.04;98769.16;5589450;31;34848;-69
2023/03/14 14:41:02;;;;;;;;;;;;;;;18.82;38.39;98766.22;5589169;31;34758;-69
2023/03/14 14:44:07;;;;;;;;;;;;;;;18.81;38.23;98769.97;5588382;31;33365;-68
2023/03/14 14:47:14;;;;;;;;;;;;;;;18.73;38.53;98765.91;5588543;31;35041;-69
2023/03/14 14:50:27;;;;;;;;;;;;;;;18.82;38.47;98766.22;5588156;31;34652;-70
2023/03/14 14:53:38;;;;;;;;;;;;;;;18.65;38.77;98763.69;5575620;31;33298;-69
2023/03/14 14:56:48;;;;;;;;;;;;;;;18.59;38.93;98762.03;5588124;31;34587;-70
2023/03/14 14:59:55;;;;;;;;;;;;;;;18.56;39.46;98763.38;5588988;31;34847;-69
2023/03/14 15:03:01;;;;;;;;;;;;;;;18.50;39.40;98767.03;5588062;31;33857;-69
2023/03/14 15:06:09;;;;;;;;;;;;;;;18.37;39.97;98764.00;5589173;31;34930;-70
2023/03/14 15:09:19;;;;;;;;;;;;;;;18.31;40.34;98765.03;5588547;31;34327;-70
2023/03/14 15:12:26;;;;;;;;;;;;;;;18.25;41.15;98754.25;5587878;31;34435;-69
2023/03/14 15:15:31;;;;;;;;;;;;;;;18.09;41.36;98763.25;5587918;31;33203;-70
2023/03/14 15:18:38;;;;;;;;;;;;;;;17.86;42.25;98770.81;5587388;31;34441;-70
2023/03/14 15:21:44;;;;;;;;;;;;;;;17.91;41.92;98776.25;5587706;31;33929;-70
2023/03/14 15:24:52;;;;;;;;;;;;;;;17.76;42.48;98783.06;5575023;31;34732;-70
2023/03/14 15:27:58;;;;;;;;;;;;;;;17.66;42.42;98788.34;5587591;31;32782;-69
2023/03/14 15:31:09;;;;;;;;;;;;;;;17.59;42.48;98795.75;5588068;31;34203;-69
2023/03/14 15:34:16;;;;;;;;;;;;;;;17.52;42.41;98795.13;5575033;31;33566;-69
2023/03/14 15:37:22;;;;;;;;;;;;;;;17.53;42.15;98801.25;5588330;31;34233;-69
2023/03/14 15:40:28;;;;;;;;;;;;;;;17.42;42.34;98797.69;5587625;31;34254;-70
2023/03/14 15:43:34;;;;;;;;;;;;;;;17.26;42.62;98802.03;5586397;31;35726;-69
2023/03/14 15:46:39;;;;;;;;;;;;;;;17.33;42.39;98809.91;5587536;31;34286;-70
2023/03/14 15:49:45;;;;;;;;;;;;;;;17.32;41.84;98809.09;5587987;31;35497;-70
2023/03/14 15:52:51;;;;;;;;;;;;;;;17.43;42.79;98826.09;5574283;31;33062;-69
2023/03/14 15:55:56;;;;;;;;;;;;;;;17.26;42.44;98858.31;5588379;31;34863;-68
2023/03/14 15:59:02;;;;;;;;;;;;;;;16.82;51.51;98859.28;5588172;31;34308;-70
2023/03/14 16:02:10;;;;;;;;;;;;;;;16.04;59.47;98876.16;5587983;31;34150;-69
2023/03/14 16:05:19;;;;;;;;;;;;;;;15.54;66.00;98876.78;5587175;31;32874;-69
2023/03/14 16:08:26;;;;;;;;;;;;;;;15.52;70.08;98886.09;5587422;31;34411;-69
2023/03/14 16:11:33;;;;;;;;;;;;;;;15.11;77.41;98892.38;5587789;31;34407;-70
2023/03/14 16:14:42;;;;;;;;;;;;;;;14.75;87.68;98880.06;5587267;31;34907;-68
2023/03/14 16:17:52;;;;;;;;;;;;;;;14.40;97.83;98890.69;5588129;31;34034;-68
2023/03/14 16:21:06;;;;;;;;;;;;;;;13.94;100.00;98880.66;5588069;31;34919;-69
2023/03/14 16:24:13;;;;;;;;;;;;;;;13.68;100.00;98875.66;5587077;31;34324;-68